Terminal Aerodrome Forecast
Issued by NWS

Home | Current Version | Previous Version | Text Only | Print | Product List | Glossary On
Versions: 1 2 3 4 5 6 7 8 9 10 11 12 13 14 15 16 17 18 19
000
FTUS42 KILM 182300
TAFCRE
TAF
KCRE 182320Z 1900/1924 08007KT P6SM FEW025 SCT050
     FM190900 05006KT P6SM BKN025
     FM191500 08010G17KT P6SM VCSH SCT030 BKN060=

USA.gov is the U.S. government's official web portal to all federal, state and local government web resources and services.